Time;durP1;ratioP1;P1;durP2;ratioP2;P2;SDS_P1;SDS_P2;PMS_P1;PMS_P2;Temp;Humidity;BMP_temperature;BMP_pressure;BME280_temperature;BME280_humidity;BME280_pressure;Samples;Min_cycle;Max_cycle;Signal;HPM_P1;HPM_P2
2023/08/21 00:02:09;;;;;;;24.95;22.58;;;21.60;99.90;;;;;;5098266;28;20040;-78
2023/08/21 00:04:36;;;;;;;24.65;22.35;;;21.50;99.90;;;;;;5097301;28;20140;-79
2023/08/21 00:07:04;;;;;;;24.88;22.48;;;21.50;99.90;;;;;;5098386;28;20036;-77
2023/08/21 00:09:31;;;;;;;23.17;20.85;;;21.50;99.90;;;;;;5100102;28;20050;-78
2023/08/21 00:12:00;;;;;;;24.23;21.55;;;21.50;99.90;;;;;;5099362;28;20067;-78
2023/08/21 00:14:28;;;;;;;22.40;20.17;;;21.50;99.90;;;;;;5097772;28;20074;-78
2023/08/21 00:16:55;;;;;;;23.45;21.25;;;21.40;99.90;;;;;;5103821;28;20040;-79
2023/08/21 00:19:22;;;;;;;24.05;21.52;;;21.30;99.90;;;;;;5101066;28;20050;-78
2023/08/21 00:21:50;;;;;;;24.55;22.02;;;21.20;99.90;;;;;;5104763;28;20154;-78
2023/08/21 00:24:17;;;;;;;23.77;21.60;;;21.20;99.90;;;;;;5084636;28;20098;-78
2023/08/21 00:26:45;;;;;;;23.65;21.20;;;21.10;99.90;;;;;;5110764;28;20099;-78
2023/08/21 00:29:15;;;;;;;24.25;21.95;;;21.10;99.90;;;;;;5117664;28;20582;-78
2023/08/21 00:31:42;;;;;;;23.83;21.48;;;21.10;99.90;;;;;;5104698;28;20048;-79
2023/08/21 00:34:10;;;;;;;23.58;21.38;;;21.10;99.90;;;;;;5089899;28;20143;-79
2023/08/21 00:36:37;;;;;;;23.45;21.20;;;21.00;99.90;;;;;;5083765;28;20035;-79
2023/08/21 00:39:06;;;;;;;24.02;21.55;;;21.10;99.90;;;;;;5081879;28;20062;-78
2023/08/21 00:41:34;;;;;;;23.85;21.65;;;21.10;99.90;;;;;;5098614;28;20105;-77
2023/08/21 00:44:01;;;;;;;22.85;20.70;;;21.10;99.90;;;;;;5082044;28;20072;-79
2023/08/21 00:46:31;;;;;;;22.92;20.20;;;21.20;99.90;;;;;;5079809;28;20581;-79
2023/08/21 00:48:59;;;;;;;23.15;21.02;;;21.10;99.90;;;;;;5098874;28;20617;-78
2023/08/21 00:51:28;;;;;;;25.95;22.98;;;21.20;99.90;;;;;;5080049;28;20032;-79
2023/08/21 00:53:56;;;;;;;29.98;27.00;;;21.10;99.90;;;;;;5080824;28;20048;-78
2023/08/21 00:56:24;;;;;;;34.17;27.75;;;21.00;99.90;;;;;;5098977;28;20043;-78
2023/08/21 00:58:52;;;;;;;28.35;25.67;;;21.00;99.90;;;;;;5098830;28;20057;-78
2023/08/21 01:01:25;;;;;;;22.40;20.23;;;21.00;99.90;;;;;;5099393;28;20119;-79
2023/08/21 01:03:55;;;;;;;24.13;21.67;;;21.00;99.90;;;;;;5097841;28;20038;-78
2023/08/21 01:06:25;;;;;;;22.77;20.58;;;21.00;99.90;;;;;;5102308;28;20126;-78
2023/08/21 01:09:01;;;;;;;23.40;20.65;;;20.90;99.90;;;;;;5080278;28;20104;-78
2023/08/21 01:11:37;;;;;;;23.33;21.20;;;20.90;99.90;;;;;;5101346;28;20055;-79
2023/08/21 01:14:15;;;;;;;24.20;21.80;;;20.80;99.90;;;;;;5078843;28;20159;-78
2023/08/21 01:16:47;;;;;;;23.63;21.33;;;20.70;99.90;;;;;;5077940;28;20619;-79
2023/08/21 01:19:27;;;;;;;23.67;21.38;;;20.70;99.90;;;;;;5084432;28;20056;-78
2023/08/21 01:21:55;;;;;;;23.25;21.15;;;20.60;99.90;;;;;;5082112;28;20043;-78
2023/08/21 01:24:23;;;;;;;23.60;21.15;;;20.60;99.90;;;;;;5079547;28;20493;-79
2023/08/21 01:26:51;;;;;;;24.75;22.30;;;20.50;99.90;;;;;;5096772;28;20050;-78
2023/08/21 01:29:18;;;;;;;23.20;20.90;;;20.50;99.90;;;;;;5079197;28;20040;-78
2023/08/21 01:31:57;;;;;;;24.52;21.38;;;20.50;99.90;;;;;;5096067;28;20036;-78
2023/08/21 01:34:25;;;;;;;22.83;20.73;;;20.50;99.90;;;;;;5094231;28;20128;-79
2023/08/21 01:36:53;;;;;;;22.42;20.20;;;20.50;99.90;;;;;;5095749;28;20048;-79
2023/08/21 01:39:21;;;;;;;23.05;20.70;;;20.50;99.90;;;;;;5077289;28;20514;-79
2023/08/21 01:41:50;;;;;;;22.23;20.13;;;20.60;99.90;;;;;;5097423;28;20498;-79
2023/08/21 01:44:17;;;;;;;23.35;21.02;;;20.60;99.90;;;;;;5085907;28;20056;-78
2023/08/21 01:46:45;;;;;;;22.77;20.50;;;20.70;99.90;;;;;;5096157;28;20036;-79
2023/08/21 01:49:12;;;;;;;25.27;20.50;;;20.60;99.90;;;;;;5077986;28;20081;-79
2023/08/21 01:51:40;;;;;;;23.42;21.08;;;20.40;99.90;;;;;;5074180;28;20455;-78
2023/08/21 01:54:07;;;;;;;24.70;21.52;;;20.40;99.90;;;;;;5095976;28;20040;-79
2023/08/21 01:56:35;;;;;;;22.50;20.48;;;20.40;99.90;;;;;;5078734;28;20130;-79
2023/08/21 01:59:06;;;;;;;23.95;21.40;;;20.60;99.90;;;;;;5075759;28;20035;-78
2023/08/21 02:01:34;;;;;;;24.05;21.52;;;20.60;99.90;;;;;;5075879;28;20066;-78
2023/08/21 02:04:01;;;;;;;22.95;20.77;;;20.50;99.90;;;;;;5077738;28;20044;-78
2023/08/21 02:06:28;;;;;;;23.27;20.95;;;20.40;99.90;;;;;;5095246;28;20065;-78
2023/08/21 02:08:56;;;;;;;23.38;20.92;;;20.40;99.90;;;;;;5095727;28;20519;-78
2023/08/21 02:11:23;;;;;;;22.98;20.70;;;20.40;99.90;;;;;;5081074;28;20047;-78
2023/08/21 02:13:53;;;;;;;23.08;20.77;;;20.40;99.90;;;;;;5099040;28;20042;-78
2023/08/21 02:16:22;;;;;;;23.08;20.60;;;20.40;99.90;;;;;;5080367;28;20048;-78
2023/08/21 02:18:49;;;;;;;22.80;20.70;;;20.40;99.90;;;;;;5099983;28;20556;-78
2023/08/21 02:21:17;;;;;;;22.83;20.35;;;20.30;99.90;;;;;;5100814;28;20040;-78
2023/08/21 02:23:44;;;;;;;21.73;19.50;;;20.40;99.90;;;;;;5099298;28;20120;-78
2023/08/21 02:26:11;;;;;;;22.05;19.80;;;20.30;99.90;;;;;;5099171;28;20043;-78
2023/08/21 02:28:43;;;;;;;22.27;20.00;;;20.40;99.90;;;;;;5080072;28;20135;-78
2023/08/21 02:31:11;;;;;;;23.50;21.30;;;20.40;99.90;;;;;;5100221;28;20437;-78
2023/08/21 02:33:40;;;;;;;21.85;19.65;;;20.40;99.90;;;;;;5081140;28;20043;-78
2023/08/21 02:36:08;;;;;;;23.85;20.90;;;20.40;99.90;;;;;;5080988;28;20102;-78
2023/08/21 02:38:36;;;;;;;24.05;21.63;;;20.40;99.90;;;;;;5099204;28;20140;-78
2023/08/21 02:41:05;;;;;;;25.50;21.33;;;20.40;99.90;;;;;;5098491;28;20071;-78
2023/08/21 02:43:32;;;;;;;23.13;20.92;;;20.40;99.90;;;;;;5099510;28;20123;-77
2023/08/21 02:45:59;;;;;;;24.10;21.63;;;20.50;99.90;;;;;;5080627;28;20032;-78
2023/08/21 02:48:27;;;;;;;24.92;22.33;;;20.50;99.90;;;;;;5082346;28;20056;-79
2023/08/21 02:50:56;;;;;;;23.08;20.67;;;20.50;99.90;;;;;;5089975;28;20051;-79
2023/08/21 02:53:23;;;;;;;24.48;21.92;;;20.30;99.90;;;;;;5080928;28;20040;-78
2023/08/21 02:55:51;;;;;;;23.77;21.38;;;20.20;99.90;;;;;;5082544;28;20502;-78
2023/08/21 02:58:18;;;;;;;25.25;22.77;;;20.10;99.90;;;;;;5098197;28;20047;-77
2023/08/21 03:00:45;;;;;;;24.40;21.95;;;20.00;99.90;;;;;;5081404;28;20044;-78
2023/08/21 03:03:13;;;;;;;24.17;21.88;;;20.00;99.90;;;;;;5081780;28;20050;-79
2023/08/21 03:05:40;;;;;;;23.67;21.30;;;20.00;99.90;;;;;;5098163;28;20044;-78
2023/08/21 03:08:09;;;;;;;23.25;21.05;;;20.00;99.90;;;;;;5071152;28;20480;-79
2023/08/21 03:10:37;;;;;;;23.00;20.60;;;20.00;99.90;;;;;;5079966;28;20044;-78
2023/08/21 03:13:04;;;;;;;23.85;21.13;;;20.00;99.90;;;;;;5062800;28;20044;-78
2023/08/21 03:15:32;;;;;;;23.85;21.45;;;20.00;99.90;;;;;;5062601;28;20044;-79
2023/08/21 03:17:59;;;;;;;23.83;20.88;;;20.00;99.90;;;;;;5062825;28;20060;-79
2023/08/21 03:20:27;;;;;;;24.55;22.15;;;20.00;99.90;;;;;;5061343;28;20562;-79
2023/08/21 03:22:54;;;;;;;25.38;22.65;;;19.90;99.90;;;;;;5080476;28;20040;-79
2023/08/21 03:25:25;;;;;;;24.15;21.83;;;19.90;99.90;;;;;;5062490;28;20055;-78
2023/08/21 03:27:53;;;;;;;24.83;22.27;;;19.80;99.90;;;;;;5061360;28;20048;-79
2023/08/21 03:30:21;;;;;;;23.13;20.70;;;19.80;99.90;;;;;;5062722;28;20064;-79
2023/08/21 03:32:48;;;;;;;24.48;21.92;;;19.90;99.90;;;;;;5061449;28;20467;-80
2023/08/21 03:35:16;;;;;;;26.38;22.30;;;19.80;99.90;;;;;;5062354;28;20076;-79
2023/08/21 03:37:43;;;;;;;25.98;23.25;;;19.80;99.90;;;;;;5059978;28;20120;-78
2023/08/21 03:40:14;;;;;;;25.15;22.60;;;19.80;99.90;;;;;;5062413;28;20063;-79
2023/08/21 03:42:44;;;;;;;25.90;23.20;;;19.80;99.90;;;;;;5061264;28;20496;-79
2023/08/21 03:45:12;;;;;;;26.38;23.88;;;19.80;99.90;;;;;;5061700;28;20721;-78
2023/08/21 03:47:40;;;;;;;25.02;22.63;;;19.90;99.90;;;;;;5062329;28;20047;-79
2023/08/21 03:50:15;;;;;;;25.40;23.03;;;19.80;99.90;;;;;;5060977;28;20048;-78
2023/08/21 03:52:42;;;;;;;26.27;23.23;;;19.80;99.90;;;;;;5060650;28;20282;-78
2023/08/21 03:55:10;;;;;;;25.30;22.63;;;19.80;99.90;;;;;;5067087;28;20559;-78
2023/08/21 03:57:37;;;;;;;25.70;23.30;;;19.90;99.90;;;;;;5064932;28;20047;-78
2023/08/21 04:00:09;;;;;;;26.38;23.73;;;19.80;99.90;;;;;;5062002;28;20464;-79
2023/08/21 04:02:43;;;;;;;24.90;22.60;;;19.80;99.90;;;;;;5078944;28;20084;-79
2023/08/21 04:05:11;;;;;;;27.08;23.92;;;19.80;99.90;;;;;;5060545;28;20040;-79
2023/08/21 04:07:39;;;;;;;27.02;24.27;;;19.90;99.90;;;;;;5084503;28;20048;-78
2023/08/21 04:10:07;;;;;;;26.88;24.13;;;19.80;99.90;;;;;;5077242;28;20134;-79
2023/08/21 04:12:34;;;;;;;25.92;23.38;;;19.80;99.90;;;;;;5080308;28;20052;-79
2023/08/21 04:15:02;;;;;;;26.17;23.65;;;19.80;99.90;;;;;;5096660;28;20047;-77
2023/08/21 04:17:31;;;;;;;24.55;22.17;;;19.90;99.90;;;;;;5097725;28;20047;-77
2023/08/21 04:20:00;;;;;;;26.75;23.92;;;19.90;99.90;;;;;;5079393;28;20154;-79
2023/08/21 04:22:27;;;;;;;26.42;23.50;;;19.90;99.90;;;;;;5096991;28;20036;-77
2023/08/21 04:24:54;;;;;;;25.73;23.23;;;19.90;99.90;;;;;;5078426;28;20063;-78
2023/08/21 04:27:22;;;;;;;25.63;22.92;;;19.90;99.90;;;;;;5078680;28;20051;-78
2023/08/21 04:29:50;;;;;;;26.13;23.45;;;20.00;99.90;;;;;;5080290;28;20147;-79
2023/08/21 04:32:17;;;;;;;26.25;23.85;;;20.00;99.90;;;;;;5096552;28;20051;-79
2023/08/21 04:34:46;;;;;;;28.70;25.88;;;20.10;99.90;;;;;;5079554;28;20044;-78
2023/08/21 04:37:14;;;;;;;28.98;26.13;;;20.10;99.90;;;;;;5078194;28;20042;-78
2023/08/21 04:39:41;;;;;;;30.27;27.20;;;20.10;99.90;;;;;;5080218;28;20128;-79
2023/08/21 04:42:09;;;;;;;23.90;21.60;;;20.20;99.90;;;;;;5079417;28;20050;-79
2023/08/21 04:44:36;;;;;;;23.20;20.85;;;20.20;99.90;;;;;;5096227;28;20036;-78
2023/08/21 04:47:22;;;;;;;32.97;29.00;;;20.30;99.90;;;;;;5079193;28;20394;-79
2023/08/21 04:49:53;;;;;;;26.20;21.38;;;20.30;99.90;;;;;;5078862;28;20113;-78
2023/08/21 04:52:21;;;;;;;26.00;21.58;;;20.40;99.90;;;;;;5078628;28;20040;-78
2023/08/21 04:54:49;;;;;;;22.77;20.48;;;20.50;99.90;;;;;;5077859;28;20051;-80
2023/08/21 04:57:18;;;;;;;24.25;19.52;;;20.60;99.90;;;;;;5077319;28;20104;-78
2023/08/21 04:59:45;;;;;;;22.98;19.98;;;20.70;99.90;;;;;;5079023;28;20051;-78
2023/08/21 05:02:13;;;;;;;22.65;20.33;;;20.80;99.90;;;;;;5077573;28;20626;-78
2023/08/21 05:04:41;;;;;;;21.70;19.70;;;20.90;99.90;;;;;;5079471;28;20040;-78
2023/08/21 05:07:11;;;;;;;26.65;23.92;;;21.00;99.90;;;;;;5077944;28;20036;-77
2023/08/21 05:09:38;;;;;;;24.27;21.98;;;21.10;99.90;;;;;;5077974;28;20068;-77
2023/08/21 05:12:08;;;;;;;21.40;17.98;;;21.20;99.90;;;;;;5076225;28;20071;-78
2023/08/21 05:14:36;;;;;;;19.98;18.05;;;21.30;99.90;;;;;;5075665;28;20035;-78
2023/08/21 05:17:04;;;;;;;19.88;17.85;;;21.40;99.90;;;;;;5095044;28;20147;-78
2023/08/21 05:19:32;;;;;;;19.48;17.67;;;21.50;99.90;;;;;;5096827;28;20330;-78
2023/08/21 05:21:59;;;;;;;19.83;17.70;;;21.60;99.90;;;;;;5077936;28;20038;-79
2023/08/21 05:24:29;;;;;;;20.05;18.00;;;21.70;99.90;;;;;;5077793;28;20047;-81
2023/08/21 05:27:04;;;;;;;20.08;18.00;;;21.90;99.90;;;;;;5097389;28;20062;-79
2023/08/21 05:29:31;;;;;;;23.60;19.70;;;21.90;99.90;;;;;;5097482;28;20044;-78
2023/08/21 05:31:59;;;;;;;21.05;18.85;;;22.00;99.90;;;;;;5079535;28;20050;-78
2023/08/21 05:34:28;;;;;;;18.98;17.05;;;22.10;99.90;;;;;;5095627;28;20136;-78
2023/08/21 05:36:55;;;;;;;20.38;17.70;;;22.20;99.90;;;;;;5095802;28;20131;-78
2023/08/21 05:39:23;;;;;;;19.52;17.52;;;22.50;99.90;;;;;;5078538;28;20052;-78
2023/08/21 05:41:52;;;;;;;19.58;17.15;;;22.80;99.90;;;;;;5078036;28;20491;-80
2023/08/21 05:44:20;;;;;;;19.80;17.67;;;23.10;99.90;;;;;;5078404;28;20397;-79
2023/08/21 05:46:48;;;;;;;19.02;16.55;;;23.30;99.90;;;;;;5078501;28;20431;-78
2023/08/21 05:49:16;;;;;;;19.83;17.60;;;23.50;99.90;;;;;;5095534;28;20052;-79
2023/08/21 05:51:43;;;;;;;27.40;17.33;;;23.80;99.90;;;;;;5079396;28;20036;-79
2023/08/21 05:54:11;;;;;;;21.02;18.85;;;23.90;99.90;;;;;;5079208;28;20043;-79
2023/08/21 05:56:41;;;;;;;18.83;16.80;;;24.00;99.90;;;;;;5078117;28;20560;-78
2023/08/21 05:59:11;;;;;;;19.67;17.63;;;24.20;99.90;;;;;;5096330;28;20110;-77
2023/08/21 06:01:39;;;;;;;19.30;17.40;;;24.40;99.90;;;;;;5082348;28;20040;-78
2023/08/21 06:04:06;;;;;;;19.15;17.13;;;24.70;99.90;;;;;;5080826;28;20324;-78
2023/08/21 06:06:49;;;;;;;18.90;16.85;;;24.80;99.90;;;;;;5077758;28;20071;-79
2023/08/21 06:09:17;;;;;;;20.23;17.98;;;24.70;99.90;;;;;;5092108;28;20056;-79
2023/08/21 06:11:44;;;;;;;20.60;18.08;;;24.60;99.90;;;;;;5087982;28;20044;-77
2023/08/21 06:14:13;;;;;;;22.10;19.85;;;24.70;99.90;;;;;;5086098;28;20435;-77
2023/08/21 06:16:41;;;;;;;20.23;18.33;;;24.80;99.90;;;;;;5064184;28;20060;-78
2023/08/21 06:19:08;;;;;;;21.27;18.13;;;25.00;99.90;;;;;;5064973;28;20181;-78
2023/08/21 06:21:36;;;;;;;25.48;19.75;;;25.30;99.90;;;;;;5083318;28;20032;-80
2023/08/21 06:24:04;;;;;;;23.63;19.02;;;25.40;99.90;;;;;;5066378;28;20067;-79
2023/08/21 06:26:32;;;;;;;20.60;18.55;;;25.70;99.90;;;;;;5066996;28;20055;-79
2023/08/21 06:28:59;;;;;;;21.08;18.33;;;25.80;99.90;;;;;;5067706;28;20044;-78
2023/08/21 06:31:28;;;;;;;21.70;19.42;;;26.00;99.90;;;;;;5092990;28;20052;-78
2023/08/21 06:33:56;;;;;;;21.30;19.13;;;26.20;99.90;;;;;;5067869;28;20050;-78
2023/08/21 06:36:23;;;;;;;23.33;20.98;;;26.40;99.90;;;;;;5091060;28;20105;-78
2023/08/21 06:38:58;;;;;;;24.35;21.60;;;26.50;99.90;;;;;;5085363;28;20094;-85
2023/08/21 06:41:26;;;;;;;27.90;24.75;;;26.60;99.90;;;;;;5082110;28;20051;-78
2023/08/21 06:43:53;;;;;;;30.83;27.42;;;26.40;99.90;;;;;;5064492;28;20048;-77
2023/08/21 06:46:21;;;;;;;32.83;29.42;;;26.50;99.90;;;;;;5063151;28;20587;-79
2023/08/21 06:48:50;;;;;;;41.45;26.88;;;26.70;99.90;;;;;;5066679;28;20048;-79
2023/08/21 06:51:18;;;;;;;26.80;24.00;;;26.80;99.90;;;;;;5085173;28;20587;-77
2023/08/21 06:53:46;;;;;;;31.08;26.98;;;26.90;99.90;;;;;;5084706;28;20062;-81
2023/08/21 06:56:13;;;;;;;29.55;26.30;;;26.90;99.90;;;;;;5086026;28;20044;-79
2023/08/21 06:58:41;;;;;;;27.55;24.73;;;27.00;99.90;;;;;;5087580;28;20102;-79
2023/08/21 07:01:08;;;;;;;29.55;26.52;;;27.10;99.90;;;;;;5085299;28;20048;-79
2023/08/21 07:03:36;;;;;;;33.45;26.98;;;27.10;99.90;;;;;;5083394;28;20040;-79
2023/08/21 07:06:04;;;;;;;30.48;27.30;;;27.10;99.90;;;;;;5088311;28;20044;-78
2023/08/21 07:08:33;;;;;;;30.75;27.65;;;27.20;99.90;;;;;;5095089;28;20416;-80
2023/08/21 07:11:04;;;;;;;32.67;27.63;;;27.30;99.90;;;;;;5099012;28;20094;-79
2023/08/21 07:13:31;;;;;;;32.58;28.08;;;27.50;99.90;;;;;;5097526;28;20148;-79
2023/08/21 07:16:02;;;;;;;35.70;29.05;;;27.60;99.90;;;;;;5097652;28;20445;-80
2023/08/21 07:18:29;;;;;;;33.80;30.05;;;27.80;99.90;;;;;;5097595;28;20131;-80
2023/08/21 07:20:56;;;;;;;37.42;32.10;;;28.20;99.90;;;;;;5100071;28;20123;-80
2023/08/21 07:23:25;;;;;;;43.08;32.70;;;28.30;99.90;;;;;;5098932;28;20048;-78
2023/08/21 07:25:52;;;;;;;37.72;33.80;;;28.30;99.90;;;;;;5097919;28;20083;-79
2023/08/21 07:28:20;;;;;;;33.25;29.80;;;28.30;99.90;;;;;;5098766;28;20446;-79
2023/08/21 07:30:47;;;;;;;42.50;30.10;;;28.30;99.90;;;;;;5098054;28;20081;-77
2023/08/21 07:33:15;;;;;;;33.38;29.77;;;28.40;99.90;;;;;;5098345;28;20040;-79
2023/08/21 07:35:44;;;;;;;29.77;26.60;;;28.40;99.90;;;;;;5101527;28;20043;-77
2023/08/21 07:38:11;;;;;;;30.75;27.50;;;28.30;99.90;;;;;;5099459;28;20046;-79
2023/08/21 07:40:42;;;;;;;31.33;27.02;;;28.30;99.90;;;;;;5097861;28;20059;-80
2023/08/21 07:43:09;;;;;;;30.15;26.05;;;28.50;99.90;;;;;;5098982;28;20036;-79
2023/08/21 07:45:38;;;;;;;29.33;26.27;;;28.60;99.90;;;;;;5099209;28;20047;-81
2023/08/21 07:48:06;;;;;;;33.30;28.00;;;28.80;99.90;;;;;;5098505;28;20104;-80
2023/08/21 07:50:34;;;;;;;35.00;30.85;;;28.80;99.90;;;;;;5097269;28;20052;-79
2023/08/21 07:53:01;;;;;;;36.67;30.33;;;28.90;99.90;;;;;;5080320;28;20040;-79
2023/08/21 07:55:29;;;;;;;34.80;31.10;;;29.10;99.90;;;;;;5096544;28;20044;-77
2023/08/21 07:57:58;;;;;;;31.63;28.42;;;29.10;99.90;;;;;;5099364;28;20052;-78
2023/08/21 08:00:25;;;;;;;32.80;28.15;;;29.20;99.90;;;;;;5099427;28;20044;-77
2023/08/21 08:02:53;;;;;;;34.20;29.27;;;29.50;99.90;;;;;;5098636;28;20131;-80
2023/08/21 08:05:21;;;;;;;32.25;28.58;;;29.50;99.90;;;;;;5102014;28;20044;-80
2023/08/21 08:07:48;;;;;;;30.27;27.13;;;29.50;99.90;;;;;;5098016;28;20134;-79
2023/08/21 08:10:16;;;;;;;36.80;31.98;;;29.60;99.90;;;;;;5097128;28;20043;-79
2023/08/21 08:12:44;;;;;;;29.30;26.23;;;29.70;99.90;;;;;;5100635;28;20047;-79
2023/08/21 08:15:13;;;;;;;30.23;25.95;;;29.70;99.90;;;;;;5098231;28;20123;-79
2023/08/21 08:17:40;;;;;;;30.48;27.20;;;29.80;99.90;;;;;;5097555;28;20487;-80
2023/08/21 08:20:08;;;;;;;31.58;28.17;;;30.00;99.90;;;;;;5098815;28;20058;-79
2023/08/21 08:22:36;;;;;;;34.50;30.42;;;29.80;99.90;;;;;;5095793;28;20079;-79
2023/08/21 08:25:04;;;;;;;34.13;27.88;;;30.00;99.90;;;;;;5080877;28;20147;-78
2023/08/21 08:27:33;;;;;;;29.77;26.67;;;30.10;99.90;;;;;;5097047;28;20548;-78
2023/08/21 08:30:00;;;;;;;31.02;27.65;;;30.30;99.90;;;;;;5081004;28;20176;-79
2023/08/21 08:32:30;;;;;;;28.75;25.95;;;30.50;99.90;;;;;;5098453;28;20047;-78
2023/08/21 08:34:58;;;;;;;30.35;27.10;;;30.60;99.90;;;;;;5097280;28;20047;-79
2023/08/21 08:37:27;;;;;;;29.63;26.45;;;30.50;99.90;;;;;;5097707;28;20063;-78
2023/08/21 08:39:55;;;;;;;30.13;26.23;;;30.40;99.90;;;;;;5098405;28;20492;-79
2023/08/21 08:42:23;;;;;;;27.77;25.10;;;30.30;99.90;;;;;;5099128;28;20040;-78
2023/08/21 08:44:56;;;;;;;29.30;26.10;;;30.30;99.90;;;;;;5102042;28;20048;-78
2023/08/21 08:47:24;;;;;;;30.60;26.02;;;30.30;99.90;;;;;;5099292;28;20071;-78
2023/08/21 08:49:55;;;;;;;26.60;23.77;;;30.30;99.90;;;;;;5098238;28;20044;-78
2023/08/21 08:52:23;;;;;;;28.65;25.73;;;30.30;99.90;;;;;;5098445;28;20475;-79
2023/08/21 08:54:52;;;;;;;29.50;24.35;;;30.40;99.90;;;;;;5099250;28;20120;-79
2023/08/21 08:57:20;;;;;;;25.23;22.55;;;30.60;99.90;;;;;;5097912;28;20040;-80
2023/08/21 08:59:47;;;;;;;24.65;22.10;;;30.80;99.90;;;;;;5098972;28;20036;-79
2023/08/21 09:02:16;;;;;;;26.15;23.65;;;30.90;99.90;;;;;;5096817;28;20505;-80
2023/08/21 09:04:43;;;;;;;28.95;25.95;;;31.10;99.90;;;;;;5079278;28;20155;-79
2023/08/21 09:07:19;;;;;;;25.45;22.80;;;31.20;99.90;;;;;;5096157;28;20059;-79
2023/08/21 09:09:50;;;;;;;27.40;24.52;;;31.20;99.90;;;;;;5079316;28;20035;-78
2023/08/21 09:12:18;;;;;;;29.33;24.15;;;31.20;99.90;;;;;;5096237;28;20131;-80
2023/08/21 09:14:46;;;;;;;26.77;23.92;;;31.20;99.90;;;;;;5096819;28;20043;-79
2023/08/21 09:17:14;;;;;;;23.77;21.58;;;31.00;99.90;;;;;;5094416;28;20559;-78
2023/08/21 09:19:43;;;;;;;21.67;19.38;;;31.00;99.90;;;;;;5095919;28;20123;-80
2023/08/21 09:22:12;;;;;;;19.73;17.65;;;30.80;99.90;;;;;;5097566;28;20056;-78
2023/08/21 09:25:00;;;;;;;20.08;16.88;;;30.80;99.90;;;;;;5097353;28;20700;-79
2023/08/21 09:27:27;;;;;;;21.35;18.58;;;31.00;99.90;;;;;;5095486;28;20047;-80
2023/08/21 09:29:56;;;;;;;22.00;19.80;;;31.00;99.90;;;;;;5080767;28;20471;-82
2023/08/21 09:32:23;;;;;;;24.58;20.83;;;31.00;99.90;;;;;;5097653;28;20518;-80
2023/08/21 09:34:52;;;;;;;22.45;18.45;;;31.10;99.90;;;;;;5095471;28;20108;-80
2023/08/21 09:37:19;;;;;;;22.00;19.88;;;31.10;99.90;;;;;;5095566;28;20066;-78
2023/08/21 09:39:48;;;;;;;24.83;20.67;;;31.10;99.90;;;;;;5098852;28;20048;-77
2023/08/21 09:42:16;;;;;;;23.35;20.20;;;31.20;99.90;;;;;;5078549;28;20044;-79
2023/08/21 09:44:43;;;;;;;23.90;20.08;;;31.30;99.90;;;;;;5096563;28;20044;-79
2023/08/21 09:47:12;;;;;;;22.73;20.42;;;31.30;99.90;;;;;;5097986;28;20123;-79
2023/08/21 09:49:41;;;;;;;22.85;20.65;;;31.40;99.90;;;;;;5097150;28;20696;-80
2023/08/21 09:52:11;;;;;;;25.20;22.60;;;31.60;99.90;;;;;;5098312;28;20471;-80
2023/08/21 09:54:40;;;;;;;25.77;23.30;;;31.60;99.90;;;;;;5094758;28;20075;-80
2023/08/21 09:57:12;;;;;;;25.95;23.25;;;31.80;99.90;;;;;;5094692;28;20757;-78
2023/08/21 09:59:41;;;;;;;25.65;23.05;;;31.80;99.90;;;;;;5097387;28;20073;-79
2023/08/21 10:02:11;;;;;;;24.63;22.20;;;31.90;99.90;;;;;;5094465;28;20048;-79
2023/08/21 10:04:43;;;;;;;26.25;23.45;;;31.90;99.90;;;;;;5095168;28;20136;-79
2023/08/21 10:07:12;;;;;;;26.85;24.08;;;31.90;99.90;;;;;;5096643;28;20095;-78
2023/08/21 10:09:41;;;;;;;27.35;24.38;;;32.10;99.90;;;;;;5095845;28;20512;-79
2023/08/21 10:12:11;;;;;;;27.15;24.27;;;32.40;99.90;;;;;;5094308;28;20075;-80
2023/08/21 10:14:39;;;;;;;25.80;23.17;;;32.50;99.90;;;;;;5096139;28;20127;-78
2023/08/21 10:17:07;;;;;;;28.40;25.17;;;32.60;99.90;;;;;;5084767;28;20356;-77
2023/08/21 10:19:36;;;;;;;24.33;21.83;;;32.70;99.90;;;;;;5095571;28;20044;-78
2023/08/21 10:22:03;;;;;;;25.25;22.55;;;32.70;99.90;;;;;;5095908;28;20044;-78
2023/08/21 10:24:36;;;;;;;24.63;22.00;;;32.70;99.90;;;;;;5090911;28;20048;-78
2023/08/21 10:27:03;;;;;;;23.70;21.23;;;32.70;99.90;;;;;;5109583;28;20054;-78
2023/08/21 10:29:33;;;;;;;23.30;21.00;;;32.80;99.90;;;;;;5099442;28;20039;-79
2023/08/21 10:32:02;;;;;;;22.38;20.05;;;32.80;99.90;;;;;;5099865;28;20582;-78
2023/08/21 10:34:34;;;;;;;24.95;20.45;;;33.00;99.90;;;;;;5100846;28;20040;-78
2023/08/21 10:37:12;;;;;;;25.17;22.58;;;33.10;99.90;;;;;;5098919;28;20547;-79
2023/08/21 10:39:42;;;;;;;22.75;20.38;;;33.40;99.90;;;;;;5111904;28;20040;-78
2023/08/21 10:42:13;;;;;;;22.33;19.73;;;33.40;99.90;;;;;;5126046;28;20074;-79
2023/08/21 10:44:55;;;;;;;21.27;19.38;;;33.50;99.90;;;;;;5124459;28;20062;-80
2023/08/21 10:47:24;;;;;;;32.65;29.20;;;33.50;99.90;;;;;;5105007;28;20058;-78
2023/08/21 10:50:04;;;;;;;22.65;20.17;;;33.70;99.90;;;;;;5102500;28;20484;-79
2023/08/21 10:52:35;;;;;;;20.52;18.50;;;34.00;99.90;;;;;;5103036;28;20050;-77
2023/08/21 10:55:06;;;;;;;21.20;19.20;;;34.20;99.90;;;;;;5103056;28;20100;-79
2023/08/21 10:57:34;;;;;;;19.73;17.70;;;34.30;99.90;;;;;;5104515;28;20934;-79
2023/08/21 11:00:07;;;;;;;20.83;18.77;;;34.20;99.90;;;;;;5103018;28;20039;-79
2023/08/21 11:02:35;;;;;;;20.63;18.65;;;34.10;99.90;;;;;;5096541;28;20062;-78
2023/08/21 11:05:03;;;;;;;20.15;18.15;;;33.80;99.90;;;;;;5098305;28;20072;-78
2023/08/21 11:07:31;;;;;;;19.75;18.05;;;33.60;99.90;;;;;;5099549;28;20052;-78
2023/08/21 11:09:59;;;;;;;20.67;16.80;;;33.40;99.90;;;;;;5099521;28;20071;-79
2023/08/21 11:12:26;;;;;;;19.70;17.90;;;33.20;99.90;;;;;;5098736;28;20044;-80
2023/08/21 11:14:54;;;;;;;17.55;15.85;;;32.90;99.90;;;;;;5100292;28;20054;-77
2023/08/21 11:17:24;;;;;;;20.10;17.67;;;32.70;99.90;;;;;;5098695;28;20048;-79
2023/08/21 11:19:51;;;;;;;25.02;21.23;;;32.50;99.90;;;;;;5101919;28;20119;-78
2023/08/21 11:22:19;;;;;;;22.38;16.88;;;32.50;99.90;;;;;;5100992;28;20048;-79
2023/08/21 11:24:48;;;;;;;17.95;16.10;;;32.30;99.90;;;;;;5101432;28;20047;-78
2023/08/21 11:27:17;;;;;;;17.67;15.88;;;32.20;99.90;;;;;;5103451;28;20051;-78
2023/08/21 11:29:46;;;;;;;22.20;19.88;;;32.20;99.90;;;;;;5104865;28;20044;-78
2023/08/21 11:32:15;;;;;;;18.50;16.70;;;32.40;99.90;;;;;;5101778;28;20126;-78
2023/08/21 11:35:03;;;;;;;19.27;14.07;;;32.50;99.90;;;;;;5100964;28;20040;-78
2023/08/21 11:37:30;;;;;;;17.35;15.63;;;32.70;99.90;;;;;;5105860;28;20052;-79
2023/08/21 11:40:09;;;;;;;19.10;17.17;;;32.90;99.90;;;;;;5088899;28;20457;-79
2023/08/21 11:42:36;;;;;;;18.58;16.83;;;33.20;99.90;;;;;;5111574;28;20123;-78
2023/08/21 11:45:04;;;;;;;18.83;16.90;;;33.40;99.90;;;;;;5102976;28;20105;-80
2023/08/21 11:47:35;;;;;;;18.17;16.30;;;33.40;99.90;;;;;;5100697;28;20108;-79
2023/08/21 11:50:10;;;;;;;18.25;16.45;;;33.50;99.90;;;;;;5102841;28;20048;-79
2023/08/21 11:52:39;;;;;;;19.25;17.45;;;33.50;99.90;;;;;;5080769;28;20083;-77
2023/08/21 11:55:11;;;;;;;15.27;13.23;;;33.50;99.90;;;;;;5096297;28;20051;-79
2023/08/21 11:57:48;;;;;;;18.75;16.80;;;33.60;99.90;;;;;;5098684;28;20055;-79
2023/08/21 12:00:18;;;;;;;16.15;14.68;;;33.70;99.90;;;;;;5082447;28;20047;-79
2023/08/21 12:02:55;;;;;;;16.75;14.23;;;33.60;99.90;;;;;;5099001;28;20127;-78
2023/08/21 12:05:27;;;;;;;14.68;12.88;;;33.70;99.90;;;;;;5081798;28;20135;-78
2023/08/21 12:07:55;;;;;;;16.50;13.55;;;33.70;99.90;;;;;;5100694;28;20108;-79
2023/08/21 12:10:26;;;;;;;13.43;11.55;;;33.80;99.90;;;;;;5101188;28;20044;-79
2023/08/21 12:12:54;;;;;;;14.90;12.25;;;33.80;99.90;;;;;;5107387;28;20048;-80
2023/08/21 12:15:22;;;;;;;14.73;12.48;;;33.60;99.90;;;;;;5107147;28;20039;-78
2023/08/21 12:17:50;;;;;;;13.20;11.85;;;33.50;99.90;;;;;;5085062;28;20040;-79
2023/08/21 12:20:17;;;;;;;17.52;15.32;;;33.40;99.90;;;;;;5109218;28;20040;-78
2023/08/21 12:22:46;;;;;;;19.77;17.77;;;33.40;99.90;;;;;;5120191;28;20710;-77
2023/08/21 12:25:16;;;;;;;12.13;10.93;;;33.20;99.90;;;;;;5119680;28;20032;-79
2023/08/21 12:27:43;;;;;;;10.50;9.50;;;33.20;99.90;;;;;;5119355;28;20051;-81
2023/08/21 12:30:11;;;;;;;11.52;9.20;;;33.00;99.90;;;;;;5121113;28;20062;-77
2023/08/21 12:32:40;;;;;;;14.23;9.77;;;32.90;99.90;;;;;;5123728;28;20035;-79
2023/08/21 12:35:11;;;;;;;11.95;10.85;;;32.90;99.90;;;;;;5118221;28;20051;-79
2023/08/21 12:37:41;;;;;;;11.88;10.80;;;33.00;99.90;;;;;;5120455;28;20123;-79